Waterproof, Louisiana
Current Conditions -  °F | °C
As of 1:15 PM on Thursday 30 Oct 2014 (Local Time) from KHEZ Reporting Station
Clear Clear  
Wind Chill: 70°   Ceiling: Unl
Heat Index: 70°   Visibility: 10mi
Dew Point: 43°   Wind: 5mph
Humidity: 38%   Direction: 80°E
Pressure: 30.13"   Gusts: NA
Location:  31.8°N, 91.38°W
Report Text: KHEZ 301815Z AUTO 08004KT 10SM CLR 21/06 A3013 RMK AO1
Loading
Personal Weather Stations






























Interactive Weather Map
Tropical Storm Tracking
New forecast layout! Learn more

10-Day Weather Forecast

Advertisements
Track Severe Weather on mobile